createdAt,value
2019-02-19T00:25:06.771Z,100977.91
2019-02-19T00:27:35.268Z,100977.15
2019-02-19T00:30:04.165Z,100972.86
2019-02-19T00:32:32.564Z,100975.47
2019-02-19T00:35:01.268Z,100969.81
2019-02-19T00:37:29.950Z,100971.18
2019-02-19T00:39:58.400Z,100969.05
2019-02-19T00:42:27.115Z,100969.77
2019-02-19T00:44:55.559Z,100964.23
2019-02-19T00:47:23.933Z,100962.11
2019-02-19T00:49:52.394Z,100961.82
2019-02-19T00:52:20.895Z,100962.56
2019-02-19T00:54:49.288Z,100958.58
2019-02-19T00:57:17.907Z,100959.11
2019-02-19T00:59:46.372Z,100954.19
2019-02-19T01:02:14.845Z,100957.54
2019-02-19T01:04:43.238Z,100951.89
2019-02-19T01:07:11.626Z,100948.89
2019-02-19T01:09:40.082Z,100948.98
2019-02-19T01:12:08.523Z,100944.04
2019-02-19T01:14:37.052Z,100942.59
2019-02-19T01:17:05.442Z,100938.53
2019-02-19T01:19:33.905Z,100936.19
2019-02-19T01:22:02.304Z,100939.46
2019-02-19T01:24:30.738Z,100937.16
2019-02-19T01:26:59.520Z,100929.84
2019-02-19T01:29:28.224Z,100925.52
2019-02-19T01:31:56.616Z,100926.80
2019-02-19T01:34:24.805Z,100924.50
2019-02-19T01:36:53.217Z,100920.45
2019-02-19T01:39:21.655Z,100917.53
2019-02-19T01:41:50.069Z,100910.06
2019-02-19T01:44:18.503Z,100917.22
2019-02-19T01:46:46.951Z,100905.88
2019-02-19T01:49:15.580Z,100904.70
2019-02-19T01:51:44.016Z,100911.18
2019-02-19T01:54:12.767Z,100905.22
2019-02-19T01:56:41.126Z,100902.70
2019-02-19T01:59:09.892Z,100899.70
2019-02-19T02:01:38.419Z,100907.30
2019-02-19T02:04:06.858Z,100900.55
2019-02-19T02:06:35.378Z,100903.31
2019-02-19T02:09:04.930Z,100904.20
2019-02-19T02:11:33.379Z,100896.81
2019-02-19T02:14:01.907Z,100896.91
2019-02-19T02:16:30.493Z,100906.39
2019-02-19T02:18:59.173Z,100903.25
2019-02-19T02:21:27.639Z,100895.72
2019-02-19T02:23:56.250Z,100889.05
2019-02-19T02:26:24.654Z,100885.34
2019-02-19T02:28:53.155Z,100890.14
2019-02-19T02:31:21.643Z,100890.98
2019-02-19T02:33:50.355Z,100889.66
2019-02-19T02:36:18.926Z,100889.80
2019-02-19T02:38:47.302Z,100887.03
2019-02-19T02:41:16.003Z,100885.35
2019-02-19T02:43:44.436Z,100880.14
2019-02-19T02:46:12.916Z,100872.34
2019-02-19T02:48:41.282Z,100876.39
2019-02-19T02:51:09.712Z,100878.20
2019-02-19T02:53:38.183Z,100873.09
2019-02-19T02:56:06.616Z,100866.59
2019-02-19T02:58:35.018Z,100874.48
2019-02-19T03:01:03.404Z,100873.17
2019-02-19T03:03:31.941Z,100870.42
2019-02-19T03:06:02.811Z,100877.02
2019-02-19T03:08:31.242Z,100872.77
2019-02-19T03:10:59.633Z,100874.41
2019-02-19T03:13:28.005Z,100876.04
2019-02-19T03:16:02.532Z,100866.42
2019-02-19T03:18:26.902Z,100871.63
2019-02-19T03:20:55.301Z,100864.75
2019-02-19T03:23:23.664Z,100865.19
2019-02-19T03:25:52.154Z,100870.13
2019-02-19T03:28:20.589Z,100863.91
2019-02-19T03:30:48.976Z,100863.78
2019-02-19T03:33:17.385Z,100866.66
2019-02-19T03:35:45.747Z,100872.08
2019-02-19T03:38:14.195Z,100869.57
2019-02-19T03:40:42.622Z,100870.41
2019-02-19T03:43:11.057Z,100868.41
2019-02-19T03:45:39.566Z,100869.80
2019-02-19T03:48:08.026Z,100869.88
2019-02-19T03:50:36.470Z,100874.47
2019-02-19T03:53:05.050Z,100874.02
2019-02-19T03:55:33.503Z,100877.81
2019-02-19T03:58:02.303Z,100878.65
2019-02-19T04:00:30.784Z,100878.34
2019-02-19T04:02:59.231Z,100882.80
2019-02-19T04:05:27.681Z,100879.76
2019-02-19T04:07:56.065Z,100875.22
2019-02-19T04:10:24.425Z,100871.82
2019-02-19T04:12:52.956Z,100876.98
2019-02-19T04:15:21.488Z,100872.04
2019-02-19T04:17:49.957Z,100877.33
2019-02-19T04:20:18.333Z,100878.03
2019-02-19T04:22:46.731Z,100876.36
2019-02-19T04:25:15.137Z,100878.03
2019-02-19T04:27:43.523Z,100874.47
2019-02-19T04:30:12.036Z,100876.58
2019-02-19T04:32:40.453Z,100872.52
2019-02-19T04:35:09.258Z,100866.21
2019-02-19T04:37:37.789Z,100866.08
2019-02-19T04:40:08.007Z,100863.70
2019-02-19T04:42:36.434Z,100863.40
2019-02-19T04:45:05.658Z,100862.52
2019-02-19T04:47:34.064Z,100868.64
2019-02-19T04:50:02.446Z,100869.05
2019-02-19T04:52:31.154Z,100865.51
2019-02-19T04:54:59.582Z,100858.76
2019-02-19T04:57:28.058Z,100862.24
2019-02-19T04:59:56.832Z,100862.24
2019-02-19T05:02:25.239Z,100869.47
2019-02-19T05:04:53.602Z,100862.64
2019-02-19T05:07:22.034Z,100863.43
2019-02-19T05:09:50.555Z,100868.23
2019-02-19T05:12:18.918Z,100861.08
2019-02-19T05:14:47.503Z,100868.49
2019-02-19T05:17:16.439Z,100870.52
2019-02-19T05:19:44.970Z,100864.61
2019-02-19T05:22:13.405Z,100872.19
2019-02-19T05:24:41.857Z,100869.35
2019-02-19T05:27:10.405Z,100864.06
2019-02-19T05:29:38.803Z,100860.36
2019-02-19T05:32:07.259Z,100866.41
2019-02-19T05:34:35.643Z,100868.52
2019-02-19T05:37:04.086Z,100875.48
2019-02-19T05:39:32.532Z,100862.39
2019-02-19T05:42:00.936Z,100866.62
2019-02-19T05:44:29.617Z,100866.06
2019-02-19T05:46:58.430Z,100869.76
2019-02-19T05:49:26.934Z,100865.80
2019-02-19T05:51:55.470Z,100868.71
2019-02-19T05:54:23.951Z,100866.55
2019-02-19T05:56:52.410Z,100866.55
2019-02-19T05:59:20.825Z,100868.84
2019-02-19T06:01:49.635Z,100877.13
2019-02-19T06:04:18.302Z,100883.39
2019-02-19T06:06:46.689Z,100874.84
2019-02-19T06:09:15.418Z,100884.86
2019-02-19T06:11:43.886Z,100883.18
2019-02-19T06:14:12.336Z,100886.31
2019-02-19T06:16:40.966Z,100886.48
2019-02-19T06:19:09.400Z,100888.95
2019-02-19T06:21:38.002Z,100889.17
2019-02-19T06:24:06.616Z,100889.95
2019-02-19T06:26:35.029Z,100885.06
2019-02-19T06:29:03.625Z,100891.20
2019-02-19T06:31:32.018Z,100889.58
2019-02-19T06:34:00.420Z,100889.58
2019-02-19T06:36:29.151Z,100890.98
2019-02-19T06:38:57.583Z,100896.14
2019-02-19T06:41:26.073Z,100905.05
2019-02-19T06:43:54.507Z,100905.81
2019-02-19T06:46:22.913Z,100909.56
2019-02-19T06:48:51.298Z,100906.56
2019-02-19T06:51:19.773Z,100914.23
2019-02-19T06:53:48.236Z,100911.72
2019-02-19T06:56:16.691Z,100920.85
2019-02-19T06:58:45.055Z,100921.55
2019-02-19T07:01:13.804Z,100924.61
2019-02-19T07:03:43.876Z,100930.38
2019-02-19T07:06:12.328Z,100928.15
2019-02-19T07:08:40.764Z,100933.25
2019-02-19T07:11:09.386Z,100923.38
2019-02-19T07:13:37.795Z,100929.55
2019-02-19T07:16:06.237Z,100933.44
2019-02-19T07:18:34.757Z,100942.14
2019-02-19T07:21:03.153Z,100938.37
2019-02-19T07:23:31.814Z,100943.02
2019-02-19T07:26:00.279Z,100939.05
2019-02-19T07:28:28.764Z,100942.53
2019-02-19T07:30:58.768Z,100938.91
2019-02-19T07:33:27.167Z,100938.76
2019-02-19T07:35:55.672Z,100938.21
2019-02-19T07:38:24.146Z,100943.77
2019-02-19T07:40:52.667Z,100942.39
2019-02-19T07:43:21.106Z,100948.46
2019-02-19T07:45:49.857Z,100948.73
2019-02-19T07:48:18.354Z,100949.48
2019-02-19T07:50:46.838Z,100951.65
2019-02-19T07:53:15.221Z,100955.48
2019-02-19T07:55:43.690Z,100956.43
2019-02-19T07:58:12.137Z,100955.25
2019-02-19T08:00:40.624Z,100963.41
2019-02-19T08:03:08.995Z,100964.17
2019-02-19T08:05:37.460Z,100963.02
2019-02-19T08:08:06.072Z,100964.23
2019-02-19T08:10:34.525Z,100960.26
2019-02-19T08:13:03.031Z,100958.54
2019-02-19T08:15:31.509Z,100963.39
2019-02-19T08:17:59.951Z,100954.42
2019-02-19T08:20:28.422Z,100961.63
2019-02-19T08:22:56.776Z,100957.59
2019-02-19T08:25:25.333Z,100965.49
2019-02-19T08:27:53.986Z,100965.10
2019-02-19T08:30:22.438Z,100964.83
2019-02-19T08:32:50.968Z,100965.81
2019-02-19T08:35:19.455Z,100967.55
2019-02-19T08:37:47.963Z,100967.43
2019-02-19T08:40:16.444Z,100966.50
2019-02-19T08:42:44.808Z,100964.59
2019-02-19T08:45:13.211Z,100971.40
2019-02-19T08:47:42.852Z,100978.92
2019-02-19T08:50:11.535Z,100982.91
2019-02-19T08:52:40.042Z,100981.19
2019-02-19T08:55:08.513Z,100978.78
2019-02-19T08:57:36.864Z,100979.28
2019-02-19T09:00:08.449Z,100985.94
2019-02-19T09:02:36.960Z,100988.92
2019-02-19T09:05:07.112Z,100993.78
2019-02-19T09:07:35.561Z,100987.30
2019-02-19T09:10:05.885Z,100995.51
2019-02-19T09:12:34.265Z,100994.67
2019-02-19T09:15:02.757Z,100995.16
2019-02-19T09:17:31.157Z,100987.78
2019-02-19T09:19:59.699Z,100995.80
2019-02-19T09:22:28.508Z,100997.64
2019-02-19T09:24:57.277Z,101002.11
2019-02-19T09:27:25.858Z,100993.98
2019-02-19T09:29:54.226Z,101006.64
2019-02-19T09:32:22.713Z,101006.14
2019-02-19T09:34:52.665Z,101007.44
2019-02-19T09:37:21.183Z,101007.48
2019-02-19T09:39:49.991Z,101001.52
2019-02-19T09:42:18.479Z,101011.51
2019-02-19T09:44:47.002Z,101008.50
2019-02-19T09:47:15.507Z,101010.14
2019-02-19T09:49:43.940Z,101015.47
2019-02-19T09:52:12.351Z,101016.14
2019-02-19T09:54:40.968Z,101017.82
2019-02-19T09:57:11.063Z,101012.91
2019-02-19T09:59:39.612Z,101018.73
2019-02-19T10:02:08.171Z,101021.85
2019-02-19T10:04:36.528Z,101022.19
2019-02-19T10:07:05.062Z,101021.05
2019-02-19T10:09:33.515Z,101031.08
2019-02-19T10:12:01.970Z,101024.58
2019-02-19T10:14:30.553Z,101032.63
2019-02-19T10:16:58.969Z,101039.78
2019-02-19T10:19:27.400Z,101043.59
2019-02-19T10:21:55.883Z,101045.26
2019-02-19T10:24:24.302Z,101037.80
2019-02-19T10:26:52.746Z,101035.16
2019-02-19T10:29:21.206Z,101046.67
2019-02-19T10:31:49.665Z,101043.04
2019-02-19T10:34:18.121Z,101044.33
2019-02-19T10:36:46.660Z,101050.17
2019-02-19T10:39:15.068Z,101045.62
2019-02-19T10:41:43.539Z,101059.09
2019-02-19T10:44:12.010Z,101053.55
2019-02-19T10:46:40.432Z,101049.41
2019-02-19T10:49:08.834Z,101061.23
2019-02-19T10:51:37.203Z,101057.92
2019-02-19T10:54:05.754Z,101054.64
2019-02-19T10:56:34.312Z,101046.96
2019-02-19T10:59:02.716Z,101043.62
2019-02-19T11:01:31.247Z,101047.98
2019-02-19T11:03:59.681Z,101045.34
2019-02-19T11:06:28.127Z,101053.62
2019-02-19T11:08:56.670Z,101047.67
2019-02-19T11:11:25.089Z,101056.64
2019-02-19T11:13:53.538Z,101052.47
2019-02-19T11:16:21.959Z,101052.10
2019-02-19T11:18:50.330Z,101051.01
2019-02-19T11:21:19.880Z,101053.15
2019-02-19T11:23:48.635Z,101047.01
2019-02-19T11:26:17.097Z,101045.36
2019-02-19T11:28:45.569Z,101046.39
2019-02-19T11:31:14.001Z,101041.89
2019-02-19T11:33:42.400Z,101040.73
2019-02-19T11:36:10.795Z,101040.55
2019-02-19T11:38:39.252Z,101036.73
2019-02-19T11:41:07.702Z,101040.39
2019-02-19T11:43:36.255Z,101037.89
2019-02-19T11:46:04.885Z,101041.08
2019-02-19T11:48:36.973Z,101037.41
2019-02-19T11:51:03.543Z,101038.73
2019-02-19T11:53:31.958Z,101053.38
2019-02-19T11:56:00.594Z,101043.69
2019-02-19T11:58:29.066Z,101039.06
2019-02-19T12:00:57.628Z,101045.02
2019-02-19T12:03:26.000Z,101044.86
2019-02-19T12:05:54.458Z,101034.39
2019-02-19T12:08:22.923Z,101038.73
2019-02-19T12:10:51.578Z,101029.22
2019-02-19T12:13:20.385Z,101025.41
2019-02-19T12:15:48.845Z,101033.23
2019-02-19T12:18:17.390Z,101016.09
2019-02-19T12:20:46.115Z,101025.41
2019-02-19T12:23:14.569Z,101029.07
2019-02-19T12:25:43.228Z,101026.26
2019-02-19T12:28:11.662Z,101020.41
2019-02-19T12:30:40.128Z,101011.42
2019-02-19T12:33:08.608Z,101008.08
2019-02-19T12:35:36.991Z,101006.08
2019-02-19T12:38:05.404Z,101007.92
2019-02-19T12:40:33.881Z,101004.24
2019-02-19T12:43:02.254Z,101003.41
2019-02-19T12:45:30.663Z,101010.11
2019-02-19T12:47:59.220Z,101007.08
2019-02-19T12:50:27.764Z,101008.42
2019-02-19T12:52:56.158Z,100998.94
2019-02-19T12:55:24.652Z,101006.07
2019-02-19T12:57:53.160Z,101012.73
2019-02-19T13:00:21.625Z,101018.06
2019-02-19T13:02:50.153Z,101018.08
2019-02-19T13:05:18.550Z,101013.77
2019-02-19T13:07:47.214Z,101023.58
2019-02-19T13:10:15.570Z,101021.27
2019-02-19T13:12:44.058Z,101021.92
2019-02-19T13:15:18.337Z,101020.08
2019-02-19T13:17:47.231Z,101019.59
2019-02-19T13:20:15.683Z,101020.59
2019-02-19T13:22:44.222Z,101022.08
2019-02-19T13:25:12.852Z,101024.23
2019-02-19T13:27:41.326Z,101023.06
2019-02-19T13:30:18.242Z,101022.07
2019-02-19T13:32:46.730Z,101015.90
2019-02-19T13:35:15.264Z,101029.27
2019-02-19T13:37:43.935Z,101018.91
2019-02-19T13:40:21.571Z,101024.43
2019-02-19T13:42:49.965Z,101024.91
2019-02-19T13:45:18.399Z,101031.58
2019-02-19T13:47:47.233Z,101027.08
2019-02-19T13:50:18.231Z,101035.57
2019-02-19T13:52:51.042Z,101031.59
2019-02-19T13:55:21.118Z,101040.73
2019-02-19T13:57:49.561Z,101036.59
2019-02-19T14:00:22.450Z,101033.90
2019-02-19T14:02:50.843Z,101030.73
2019-02-19T14:05:19.277Z,101034.41
2019-02-19T14:07:47.815Z,101027.08
2019-02-19T14:10:16.215Z,101039.40
2019-02-19T14:12:44.671Z,101031.40
2019-02-19T14:15:29.924Z,101036.07
2019-02-19T14:17:59.043Z,101033.06
2019-02-19T14:20:37.697Z,101030.76
2019-02-19T14:23:19.534Z,101030.73
2019-02-19T14:25:52.302Z,101025.42
2019-02-19T14:28:22.346Z,101028.08
2019-02-19T14:30:55.388Z,101028.41
2019-02-19T14:33:48.954Z,101029.42
2019-02-19T14:36:21.183Z,101036.42
2019-02-19T14:39:07.522Z,101031.08
2019-02-19T14:41:55.461Z,101033.09
2019-02-19T14:44:25.479Z,101027.08
2019-02-19T14:46:58.554Z,101029.27
2019-02-19T14:49:37.459Z,101022.24
2019-02-19T14:52:06.786Z,101021.41
2019-02-19T14:54:39.326Z,101020.91
2019-02-19T14:57:09.499Z,101027.73
2019-02-19T14:59:42.559Z,101037.73
2019-02-19T15:02:24.682Z,101025.41
2019-02-19T15:05:06.737Z,101034.74
2019-02-19T15:07:39.764Z,101035.08
2019-02-19T15:10:29.043Z,101028.41
2019-02-19T15:13:05.044Z,101030.59
2019-02-19T15:15:35.309Z,101036.73
2019-02-19T15:18:14.503Z,101035.59
2019-02-19T15:21:00.519Z,101038.56
2019-02-19T15:23:42.204Z,101036.41
2019-02-19T15:26:12.364Z,101034.75
2019-02-19T15:28:57.296Z,101037.72
2019-02-19T15:31:27.481Z,101036.06
2019-02-19T15:34:00.254Z,101041.05
2019-02-19T15:36:39.318Z,101040.40
2019-02-19T15:39:09.558Z,101046.06
2019-02-19T15:41:58.033Z,101034.74
2019-02-19T15:44:28.030Z,101036.21
2019-02-19T15:47:03.659Z,101042.06
2019-02-19T15:49:33.675Z,101034.73
2019-02-19T15:52:03.790Z,101025.88
2019-02-19T15:54:33.813Z,101026.69
2019-02-19T15:57:09.548Z,101039.70
2019-02-19T15:59:42.597Z,101036.38
2019-02-19T16:02:21.338Z,101042.05
2019-02-19T16:04:51.415Z,101038.02
2019-02-19T16:07:35.990Z,101046.05
2019-02-19T16:10:21.831Z,101043.69
2019-02-19T16:12:54.930Z,101048.36
2019-02-19T16:15:28.147Z,101038.69
2019-02-19T16:18:01.310Z,101037.20
2019-02-19T16:20:34.350Z,101033.84
2019-02-19T16:23:16.113Z,101027.37
2019-02-19T16:26:03.814Z,101029.55
2019-02-19T16:28:37.056Z,101039.36
2019-02-19T16:31:23.615Z,101036.67
2019-02-19T16:33:53.708Z,101036.67
2019-02-19T16:36:29.479Z,101043.83
2019-02-19T16:39:05.253Z,101039.34
2019-02-19T16:41:38.019Z,101036.00
2019-02-19T16:44:27.676Z,101031.66
2019-02-19T16:46:57.764Z,101030.80
2019-02-19T16:49:28.060Z,101039.31
2019-02-19T16:51:58.181Z,101039.78
2019-02-19T16:54:28.363Z,101038.63
2019-02-19T16:56:58.446Z,101042.29
2019-02-19T16:59:44.743Z,101039.97
2019-02-19T17:02:14.881Z,101034.64
2019-02-19T17:04:44.919Z,101031.66
2019-02-19T17:07:17.689Z,101034.64
2019-02-19T17:09:50.888Z,101042.97
2019-02-19T17:12:23.663Z,101045.63
2019-02-19T17:14:53.681Z,101052.44
2019-02-19T17:17:23.707Z,101052.59
2019-02-19T17:20:05.857Z,101055.94
2019-02-19T17:22:44.483Z,101055.75
2019-02-19T17:25:17.655Z,101054.42
2019-02-19T17:28:05.481Z,101055.27
2019-02-19T17:30:51.520Z,101061.58
2019-02-19T17:33:21.533Z,101069.56
2019-02-19T17:35:52.524Z,101065.57
2019-02-19T17:38:25.726Z,101070.89
2019-02-19T17:41:01.404Z,101074.58
2019-02-19T17:43:46.118Z,101068.76
2019-02-19T17:46:16.258Z,101066.25
2019-02-19T17:48:51.996Z,101078.39
2019-02-19T17:51:22.058Z,101080.89
2019-02-19T17:54:08.703Z,101076.56
2019-02-19T17:56:54.703Z,101075.53
2019-02-19T17:59:24.989Z,101083.21
2019-02-19T18:01:57.838Z,101081.35
2019-02-19T18:04:30.355Z,101082.98
2019-02-19T18:07:06.150Z,101098.31
2019-02-19T18:09:36.297Z,101095.80
2019-02-19T18:12:06.426Z,101094.96
2019-02-19T18:14:42.315Z,101086.48
2019-02-19T18:17:12.354Z,101094.44
2019-02-19T18:19:40.727Z,101086.14
2019-02-19T18:22:09.080Z,101091.77
2019-02-19T18:24:37.577Z,101087.97
2019-02-19T18:27:06.038Z,101081.20
2019-02-19T18:29:34.423Z,101088.20
2019-02-19T18:32:02.888Z,101080.82
2019-02-19T18:34:31.297Z,101081.66
2019-02-19T18:36:59.719Z,101078.99
2019-02-19T18:39:28.282Z,101090.44
2019-02-19T18:41:57.582Z,101086.10
2019-02-19T18:44:26.030Z,101085.42
2019-02-19T18:46:54.560Z,101093.44
2019-02-19T18:49:23.088Z,101090.09
2019-02-19T18:51:51.964Z,101089.11
2019-02-19T18:54:20.394Z,101086.45
2019-02-19T18:56:48.862Z,101078.16
2019-02-19T18:59:17.388Z,101087.78
2019-02-19T19:01:45.832Z,101091.92
2019-02-19T19:04:14.268Z,101096.44
2019-02-19T19:06:42.849Z,101099.26
2019-02-19T19:09:11.294Z,101091.47
2019-02-19T19:11:41.955Z,101090.73
2019-02-19T19:14:10.185Z,101084.27
2019-02-19T19:16:38.574Z,101089.45
2019-02-19T19:19:06.958Z,101087.28
2019-02-19T19:21:35.426Z,101092.30
2019-02-19T19:24:03.910Z,101091.47
2019-02-19T19:26:32.658Z,101089.11
2019-02-19T19:29:01.026Z,101096.29
2019-02-19T19:31:33.411Z,101109.06
2019-02-19T19:33:59.731Z,101106.60
2019-02-19T19:36:28.194Z,101124.39
2019-02-19T19:38:56.601Z,101136.70
2019-02-19T19:41:25.205Z,101154.50
2019-02-19T19:43:53.695Z,101166.73
2019-02-19T19:46:22.158Z,101178.20
2019-02-19T19:48:50.581Z,101185.13
2019-02-19T19:51:18.942Z,101177.88
2019-02-19T19:53:47.442Z,101181.56
2019-02-19T19:56:15.882Z,101189.80
2019-02-19T19:58:44.346Z,101180.77
2019-02-19T20:01:12.710Z,101183.25
2019-02-19T20:03:41.256Z,101178.38
2019-02-19T20:06:09.778Z,101181.28
2019-02-19T20:08:38.491Z,101182.47
2019-02-19T20:11:07.333Z,101184.18
2019-02-19T20:13:35.922Z,101182.86
2019-02-19T20:16:05.261Z,101182.36
2019-02-19T20:18:39.073Z,101183.55
2019-02-19T20:21:04.364Z,101187.06
2019-02-19T20:23:32.811Z,101190.67
2019-02-19T20:26:01.304Z,101189.83
2019-02-19T20:28:30.443Z,101189.67
2019-02-19T20:30:58.840Z,101193.17
2019-02-19T20:33:27.195Z,101183.92
2019-02-19T20:35:55.968Z,101196.16
2019-02-19T20:38:24.470Z,101186.04
2019-02-19T20:40:53.035Z,101192.48
2019-02-19T20:43:21.628Z,101191.12
2019-02-19T20:45:50.140Z,101192.14
2019-02-19T20:48:18.615Z,101194.52
2019-02-19T20:50:47.116Z,101193.58
2019-02-19T20:53:15.576Z,101188.00
2019-02-19T20:55:44.090Z,101187.39
2019-02-19T20:58:12.615Z,101189.48
2019-02-19T21:00:41.100Z,101187.14
2019-02-19T21:03:09.575Z,101192.37
2019-02-19T21:05:38.131Z,101190.91
2019-02-19T21:08:06.540Z,101190.06
2019-02-19T21:10:34.946Z,101193.28
2019-02-19T21:13:03.416Z,101202.35
2019-02-19T21:15:31.818Z,101190.77
2019-02-19T21:18:00.264Z,101198.60
2019-02-19T21:20:28.722Z,101194.12
2019-02-19T21:22:57.129Z,101193.33
2019-02-19T21:25:31.079Z,101203.41
2019-02-19T21:27:55.788Z,101201.25
2019-02-19T21:30:24.157Z,101199.00
2019-02-19T21:32:52.583Z,101199.97
2019-02-19T21:35:21.059Z,101203.95
2019-02-19T21:37:49.565Z,101200.23
2019-02-19T21:40:18.039Z,101205.36
2019-02-19T21:42:46.497Z,101212.00
2019-02-19T21:45:15.569Z,101216.20
2019-02-19T21:47:44.057Z,101210.50
2019-02-19T21:50:15.553Z,101214.52
2019-02-19T21:52:43.698Z,101219.97
2019-02-19T21:55:12.928Z,101213.77
2019-02-19T21:57:41.372Z,101213.85
2019-02-19T22:00:13.778Z,101222.08
2019-02-19T22:02:42.496Z,101221.38
2019-02-19T22:05:10.892Z,101221.86
2019-02-19T22:07:39.352Z,101226.41
2019-02-19T22:10:12.505Z,101222.91
2019-02-19T22:12:41.312Z,101219.83
2019-02-19T22:15:11.721Z,101224.02
2019-02-19T22:17:40.165Z,101223.97
2019-02-19T22:20:34.311Z,101224.89
2019-02-19T22:23:02.812Z,101233.60
2019-02-19T22:25:31.270Z,101223.00
2019-02-19T22:28:00.036Z,101226.76
2019-02-19T22:30:28.612Z,101227.87
2019-02-19T22:32:57.068Z,101229.77
2019-02-19T22:35:25.523Z,101231.52
2019-02-19T22:37:53.972Z,101231.08
2019-02-19T22:40:22.440Z,101228.92
2019-02-19T22:42:50.913Z,101235.69
2019-02-19T22:45:19.358Z,101240.77
2019-02-19T22:47:53.406Z,101251.81
2019-02-19T22:50:17.989Z,101247.78
2019-02-19T22:52:46.477Z,101253.68
2019-02-19T22:55:22.314Z,101245.75
2019-02-19T22:57:50.781Z,101244.69
2019-02-19T23:00:32.527Z,101247.20
2019-02-19T23:03:00.934Z,101254.27
2019-02-19T23:05:29.319Z,101249.64
2019-02-19T23:07:57.704Z,101248.25
2019-02-19T23:10:26.150Z,101259.70
2019-02-19T23:12:54.603Z,101256.08
2019-02-19T23:15:23.294Z,101256.35
2019-02-19T23:17:51.675Z,101249.65
2019-02-19T23:20:20.058Z,101251.81
2019-02-19T23:22:48.538Z,101251.94
2019-02-19T23:25:16.964Z,101266.61
2019-02-19T23:27:45.533Z,101265.07
2019-02-19T23:30:14.025Z,101270.43
2019-02-19T23:32:42.743Z,101273.71
2019-02-19T23:35:24.936Z,101271.55
2019-02-19T23:37:53.480Z,101269.77
2019-02-19T23:40:21.995Z,101271.45
2019-02-19T23:42:50.712Z,101269.86
2019-02-19T23:45:19.082Z,101272.03
2019-02-19T23:47:47.499Z,101265.41
2019-02-19T23:50:16.017Z,101273.00
2019-02-19T23:52:44.661Z,101274.81
2019-02-19T23:55:13.104Z,101272.31
2019-02-19T23:57:41.642Z,101274.41
